Time;durP1;ratioP1;P1;durP2;ratioP2;P2;SDS_P1;SDS_P2;PMS_P1;PMS_P2;Temp;Humidity;BMP_temperature;BMP_pressure;BME280_temperature;BME280_humidity;BME280_pressure;Samples;Min_cycle;Max_cycle;Signal;HPM_P1;HPM_P2
2022/06/08 00:00:18;;;;;;;8.20;5.53;;;11.30;99.90;;;;;;5019777;28;20060;-90
2022/06/08 00:02:47;;;;;;;6.40;5.45;;;11.20;99.90;;;;;;5019771;28;20102;-93
2022/06/08 00:05:15;;;;;;;12.45;6.00;;;11.20;99.90;;;;;;5020246;28;20143;-90
2022/06/08 00:07:41;;;;;;;9.57;5.80;;;11.20;99.90;;;;;;5019898;28;20049;-89
2022/06/08 00:10:08;;;;;;;9.95;5.70;;;11.30;99.90;;;;;;5019143;28;20057;-91
2022/06/08 00:12:34;;;;;;;9.75;5.57;;;10.60;99.90;;;;;;5004275;28;20076;-90
2022/06/08 00:15:00;;;;;;;9.07;5.65;;;11.30;99.90;;;;;;5020284;28;20045;-90
2022/06/08 00:17:32;;;;;;;10.23;5.93;;;11.20;99.90;;;;;;5020035;28;20476;-89
2022/06/08 00:20:16;;;;;;;8.57;5.45;;;11.00;99.90;;;;;;5020065;28;20045;-90
2022/06/08 00:22:45;;;;;;;9.38;5.57;;;11.30;99.90;;;;;;4992121;28;20083;-91
2022/06/08 00:25:31;;;;;;;10.95;6.32;;;11.20;99.90;;;;;;5002674;28;20056;-92
2022/06/08 00:28:08;;;;;;;9.43;5.63;;;10.80;99.90;;;;;;5005808;28;20059;-91
2022/06/08 00:30:36;;;;;;;12.35;5.65;;;11.20;99.90;;;;;;5004434;28;20132;-91
2022/06/08 00:33:03;;;;;;;7.38;5.53;;;11.20;99.90;;;;;;5002650;28;20424;-91
2022/06/08 00:35:29;;;;;;;7.88;5.60;;;11.20;99.90;;;;;;5020172;28;20147;-89
2022/06/08 00:38:07;;;;;;;7.95;6.18;;;11.20;99.90;;;;;;5019619;28;20132;-90
2022/06/08 00:40:54;;;;;;;6.75;5.47;;;11.20;99.90;;;;;;5019660;28;20501;-90
2022/06/08 00:43:25;;;;;;;10.98;5.25;;;10.40;99.90;;;;;;5019361;28;20059;-90
2022/06/08 00:45:54;;;;;;;8.35;5.18;;;11.20;99.90;;;;;;5033335;28;20052;-90
2022/06/08 00:48:22;;;;;;;7.68;5.10;;;11.40;99.90;;;;;;5019052;28;20045;-93
2022/06/08 00:50:54;;;;;;;8.57;5.18;;;11.40;99.90;;;;;;5018962;28;20056;-91
2022/06/08 00:53:31;;;;;;;11.55;5.68;;;11.40;99.90;;;;;;5019803;28;20127;-92
2022/06/08 00:56:00;;;;;;;9.75;4.95;;;11.50;99.90;;;;;;5019776;28;20051;-93
2022/06/08 00:58:29;;;;;;;7.15;5.07;;;11.40;99.90;;;;;;5019620;28;20049;-90
2022/06/08 01:01:04;;;;;;;11.32;5.95;;;11.40;99.90;;;;;;5019318;28;20378;-90
2022/06/08 01:03:33;;;;;;;9.88;6.60;;;11.30;99.90;;;;;;5020157;28;20080;-89
2022/06/08 01:06:13;;;;;;;9.68;6.75;;;11.40;99.90;;;;;;5019538;28;20103;-92
2022/06/08 01:08:45;;;;;;;10.23;6.22;;;11.30;99.90;;;;;;5018937;28;20128;-91
2022/06/08 01:11:39;;;;;;;12.48;6.28;;;11.30;99.90;;;;;;5019269;28;20051;-90
2022/06/08 01:14:16;;;;;;;10.18;5.97;;;11.30;99.90;;;;;;5018711;28;20052;-90
2022/06/08 01:16:48;;;;;;;8.43;6.13;;;11.40;99.90;;;;;;5018733;28;20044;-90
2022/06/08 01:19:14;;;;;;;8.98;6.07;;;11.30;99.90;;;;;;5019320;28;20053;-92
2022/06/08 01:21:40;;;;;;;10.23;5.47;;;11.20;99.90;;;;;;5019200;28;20049;-89
2022/06/08 01:24:16;;;;;;;10.00;5.95;;;11.30;99.90;;;;;;5019148;28;20051;-89
2022/06/08 01:27:13;;;;;;;10.68;5.93;;;11.50;99.90;;;;;;5015592;28;20095;-90
2022/06/08 01:30:19;;;;;;;8.77;5.75;;;11.10;99.90;;;;;;5019742;28;20072;-92
2022/06/08 01:33:25;;;;;;;11.55;5.82;;;11.20;99.90;;;;;;5019240;28;20136;-92
2022/06/08 01:36:21;;;;;;;11.10;5.65;;;11.20;99.90;;;;;;5019237;28;20044;-90
2022/06/08 01:39:05;;;;;;;7.43;5.20;;;11.40;99.90;;;;;;5019076;28;20048;-92
2022/06/08 01:41:37;;;;;;;8.77;5.40;;;11.20;99.90;;;;;;5018991;28;20122;-89
2022/06/08 01:48:01;;;;;;;12.80;5.50;;;11.30;99.90;;;;;;4960830;28;20571;-93
2022/06/08 01:50:37;;;;;;;7.72;5.75;;;11.30;99.90;;;;;;5018702;28;20138;-90
2022/06/08 01:53:13;;;;;;;9.73;5.53;;;11.40;99.90;;;;;;5027432;28;20496;-87
2022/06/08 01:55:54;;;;;;;7.82;5.75;;;11.10;99.90;;;;;;5030682;28;20092;-91
2022/06/08 01:59:01;;;;;;;7.47;5.70;;;11.20;99.90;;;;;;5025109;28;20142;-90
2022/06/08 02:02:00;;;;;;;8.80;5.55;;;11.40;99.90;;;;;;5022748;28;20146;-89
2022/06/08 02:04:46;;;;;;;8.27;5.20;;;11.20;99.90;;;;;;5022908;28;20481;-90
2022/06/08 02:07:26;;;;;;;7.40;5.50;;;11.30;99.90;;;;;;5022688;28;20481;-92
2022/06/08 02:10:11;;;;;;;7.22;5.60;;;11.20;99.90;;;;;;5029322;28;20056;-88
2022/06/08 02:12:51;;;;;;;10.73;5.90;;;11.10;99.90;;;;;;5033022;28;20052;-90
2022/06/08 02:15:30;;;;;;;7.20;5.85;;;11.10;99.90;;;;;;5016810;28;20106;-88
2022/06/08 02:18:01;;;;;;;8.35;6.40;;;11.10;99.90;;;;;;5033793;28;20045;-89
2022/06/08 02:21:06;;;;;;;8.10;5.90;;;11.10;99.90;;;;;;5032631;28;20075;-89
2022/06/08 02:24:25;;;;;;;10.27;5.90;;;11.30;99.90;;;;;;5025273;28;20079;-93
2022/06/08 02:27:00;;;;;;;9.55;6.10;;;11.20;99.90;;;;;;4950496;28;20059;-88
2022/06/08 02:29:55;;;;;;;;;;;11.00;99.90;;;;;;4972036;28;20114;-89
2022/06/08 02:35:57;;;;;;;10.20;6.00;;;11.00;99.90;;;;;;5066694;28;20044;-90
2022/06/08 02:38:30;;;;;;;7.88;5.80;;;11.00;99.90;;;;;;5053290;28;20141;-88
2022/06/08 02:41:01;;;;;;;9.55;6.53;;;11.00;99.90;;;;;;5054008;28;20056;-88
2022/06/08 02:43:37;;;;;;;10.20;6.25;;;11.20;99.90;;;;;;5053760;28;20071;-88
2022/06/08 02:46:44;;;;;;;9.23;6.35;;;11.10;99.90;;;;;;5050893;28;20082;-88
2022/06/08 02:49:09;;;;;;;9.93;6.45;;;10.90;99.90;;;;;;5048382;28;20040;-92
2022/06/08 02:51:36;;;;;;;9.35;6.50;;;10.90;99.90;;;;;;5042268;28;20455;-90
2022/06/08 02:54:16;;;;;;;9.68;6.15;;;11.10;99.90;;;;;;5025231;28;20045;-92
2022/06/08 02:56:46;;;;;;;9.90;6.53;;;11.10;99.90;;;;;;5040839;28;20118;-90
2022/06/08 02:59:29;;;;;;;8.07;6.40;;;10.80;99.90;;;;;;5041006;28;20052;-93
2022/06/08 03:02:17;;;;;;;8.98;6.28;;;11.00;99.90;;;;;;5041936;28;20044;-89
2022/06/08 03:05:22;;;;;;;11.50;6.88;;;11.10;99.90;;;;;;5041137;28;20135;-91
2022/06/08 03:08:12;;;;;;;8.48;6.25;;;11.10;99.90;;;;;;5028081;28;20464;-90
2022/06/08 03:10:41;;;;;;;9.80;6.65;;;11.00;99.90;;;;;;5041404;28;20128;-90
2022/06/08 03:13:19;;;;;;;9.23;6.93;;;11.20;99.90;;;;;;5041354;28;20047;-88
2022/06/08 03:15:50;;;;;;;;;;;11.30;99.90;;;;;;5041642;28;20099;-90
2022/06/08 03:18:16;;;;;;;8.55;6.55;;;11.30;99.90;;;;;;5042020;28;19916;-91
2022/06/08 03:20:42;;;;;;;11.30;7.38;;;11.50;99.90;;;;;;5027261;28;20049;-86
2022/06/08 03:23:11;;;;;;;12.90;7.32;;;11.40;99.90;;;;;;5041396;28;20048;-87
2022/06/08 03:25:50;;;;;;;13.63;7.72;;;10.50;99.90;;;;;;5036949;28;20728;-88
2022/06/08 03:28:17;;;;;;;11.23;7.65;;;11.40;99.90;;;;;;5022264;28;20136;-88
2022/06/08 03:30:44;;;;;;;11.73;7.43;;;11.40;99.90;;;;;;5021154;28;20060;-88
2022/06/08 03:33:17;;;;;;;9.70;7.05;;;11.50;99.90;;;;;;5020695;28;20060;-88
2022/06/08 03:35:43;;;;;;;12.35;7.72;;;12.10;99.90;;;;;;5005491;28;20048;-89
2022/06/08 03:38:09;;;;;;;13.93;7.55;;;11.40;99.90;;;;;;5021000;28;20048;-88
2022/06/08 03:40:36;;;;;;;10.10;7.30;;;11.40;99.90;;;;;;5020568;28;20052;-89
2022/06/08 03:43:02;;;;;;;11.10;7.63;;;11.40;99.90;;;;;;5020715;28;20180;-89
2022/06/08 03:45:36;;;;;;;12.02;8.15;;;11.60;99.90;;;;;;5021335;28;20076;-91
2022/06/08 03:48:11;;;;;;;11.73;8.50;;;11.70;99.90;;;;;;5020733;28;20515;-91
2022/06/08 03:50:41;;;;;;;12.48;8.02;;;11.90;99.90;;;;;;5020749;28;20111;-89
2022/06/08 03:53:16;;;;;;;13.18;8.30;;;11.60;99.90;;;;;;5020604;28;20700;-89
2022/06/08 03:55:50;;;;;;;13.88;9.68;;;11.60;99.90;;;;;;5020742;28;20084;-90
2022/06/08 03:58:17;;;;;;;12.73;9.45;;;;;;;;;;5020358;28;20559;-91
2022/06/08 04:00:50;;;;;;;16.73;9.95;;;11.90;99.90;;;;;;5021160;28;20563;-91
2022/06/08 04:03:17;;;;;;;14.95;10.48;;;11.10;99.90;;;;;;5020408;28;20053;-87
2022/06/08 04:05:43;;;;;;;14.50;9.52;;;11.80;99.90;;;;;;5024448;28;20440;-85
2022/06/08 04:08:15;;;;;;;12.25;9.05;;;12.80;99.90;;;;;;5012690;28;20048;-89
2022/06/08 04:10:47;;;;;;;12.55;10.10;;;11.90;99.90;;;;;;5020898;28;20088;-92
2022/06/08 04:13:16;;;;;;;15.00;9.73;;;12.20;99.90;;;;;;5020284;28;20057;-91
2022/06/08 04:15:44;;;;;;;11.90;9.57;;;11.70;99.90;;;;;;5036697;28;20386;-90
2022/06/08 04:18:20;;;;;;;15.95;10.55;;;12.30;99.90;;;;;;5019895;28;20488;-91
2022/06/08 04:20:51;;;;;;;14.70;10.25;;;12.10;99.90;;;;;;5020226;28;20045;-89
2022/06/08 04:23:19;;;;;;;15.57;10.55;;;12.30;99.90;;;;;;5003764;28;20056;-88
2022/06/08 04:25:46;;;;;;;15.10;10.50;;;12.00;99.90;;;;;;5019681;28;20056;-88
2022/06/08 04:28:15;;;;;;;16.02;10.15;;;12.30;99.90;;;;;;5036713;28;20131;-89
2022/06/08 04:30:42;;;;;;;13.95;9.98;;;12.10;99.90;;;;;;5019972;28;20488;-87
2022/06/08 04:33:12;;;;;;;16.58;10.57;;;12.40;99.90;;;;;;5003111;28;20107;-89
2022/06/08 04:35:39;;;;;;;16.13;10.93;;;12.40;99.90;;;;;;5003893;28;20045;-89
2022/06/08 04:38:07;;;;;;;15.23;10.43;;;12.30;99.90;;;;;;5020780;28;20392;-87
2022/06/08 04:40:35;;;;;;;13.95;10.85;;;11.30;99.90;;;;;;4988810;28;20041;-90
2022/06/08 04:43:01;;;;;;;17.63;10.82;;;12.40;99.90;;;;;;5021329;28;20108;-86
2022/06/08 04:45:27;;;;;;;14.82;11.02;;;12.60;99.90;;;;;;5021189;28;20135;-88
2022/06/08 04:47:53;;;;;;;15.75;10.90;;;12.90;99.90;;;;;;5005459;28;20095;-88
2022/06/08 04:50:19;;;;;;;15.82;11.60;;;13.20;99.90;;;;;;5020006;28;20056;-89
2022/06/08 04:52:45;;;;;;;14.77;11.90;;;12.90;99.90;;;;;;5005415;28;20132;-88
2022/06/08 04:55:13;;;;;;;14.82;11.25;;;13.00;99.90;;;;;;5020200;28;20095;-90
2022/06/08 04:57:45;;;;;;;19.25;12.15;;;13.30;99.90;;;;;;5021060;28;20393;-90
2022/06/08 05:00:16;;;;;;;18.70;12.82;;;13.30;99.90;;;;;;5003984;28;20191;-87
2022/06/08 05:02:48;;;;;;;18.23;12.98;;;13.40;99.90;;;;;;5021361;28;20059;-87
2022/06/08 05:05:37;;;;;;;15.55;9.10;;;13.40;99.90;;;;;;5020134;28;20056;-89
2022/06/08 05:08:04;;;;;;;17.05;12.05;;;13.20;99.90;;;;;;5020536;28;20056;-90
2022/06/08 05:10:31;;;;;;;14.70;10.20;;;13.60;99.90;;;;;;5020011;28;20068;-89
2022/06/08 05:13:00;;;;;;;15.93;11.63;;;13.50;99.90;;;;;;5020455;28;20142;-89
2022/06/08 05:15:30;;;;;;;17.52;11.25;;;13.50;99.90;;;;;;5020195;28;20127;-88
2022/06/08 05:17:59;;;;;;;17.88;11.40;;;13.60;99.90;;;;;;5021077;28;20080;-89
2022/06/08 05:20:30;;;;;;;18.58;12.82;;;13.60;99.90;;;;;;5023532;28;20053;-90
2022/06/08 05:22:56;;;;;;;19.80;12.75;;;13.90;99.90;;;;;;5024757;28;20044;-87
2022/06/08 05:25:32;;;;;;;20.23;13.48;;;13.90;99.90;;;;;;5024510;28;20135;-86
2022/06/08 05:27:58;;;;;;;18.67;12.93;;;13.60;99.90;;;;;;5024377;28;20052;-87
2022/06/08 05:30:25;;;;;;;22.60;13.93;;;13.90;99.90;;;;;;5024155;28;20385;-89
2022/06/08 05:32:52;;;;;;;17.55;12.43;;;14.60;99.90;;;;;;5023945;28;20045;-87
2022/06/08 05:35:18;;;;;;;19.55;13.55;;;13.50;99.90;;;;;;5023521;28;20106;-88
2022/06/08 05:37:43;;;;;;;20.70;13.80;;;13.40;99.90;;;;;;5008437;28;20056;-89
2022/06/08 05:40:12;;;;;;;18.88;14.07;;;13.60;99.90;;;;;;5039971;28;20044;-88
2022/06/08 05:42:38;;;;;;;19.48;14.30;;;13.70;99.90;;;;;;5007096;28;20082;-91
2022/06/08 05:45:06;;;;;;;18.20;14.13;;;14.10;99.90;;;;;;5024662;28;20049;-88
2022/06/08 05:47:33;;;;;;;17.83;14.05;;;13.50;99.90;;;;;;5024453;28;20059;-85
2022/06/08 05:50:03;;;;;;;20.63;14.02;;;14.80;99.90;;;;;;5023990;28;20465;-91
2022/06/08 05:52:29;;;;;;;21.75;14.65;;;13.60;99.90;;;;;;5024373;28;20048;-86
2022/06/08 05:54:59;;;;;;;20.52;14.38;;;12.90;99.90;;;;;;5023950;28;20088;-90
2022/06/08 05:57:25;;;;;;;21.05;15.15;;;13.80;99.90;;;;;;5023599;28;20080;-90
2022/06/08 05:59:50;;;;;;;18.50;14.00;;;13.90;99.90;;;;;;5008117;28;20428;-88
2022/06/08 06:02:16;;;;;;;18.33;13.13;;;13.70;99.90;;;;;;5006588;28;20386;-89
2022/06/08 06:04:42;;;;;;;19.70;13.60;;;13.70;99.90;;;;;;5040019;28;20053;-89
2022/06/08 06:07:10;;;;;;;17.55;13.13;;;13.80;99.90;;;;;;5006503;28;20057;-89
2022/06/08 06:09:43;;;;;;;19.25;13.40;;;14.00;99.90;;;;;;5022986;28;20056;-89
2022/06/08 06:12:26;;;;;;;19.48;13.95;;;14.60;99.90;;;;;;5024318;28;20067;-89
2022/06/08 06:14:59;;;;;;;16.38;13.68;;;14.20;99.90;;;;;;5023210;28;20115;-90
2022/06/08 06:17:28;;;;;;;17.13;12.82;;;14.40;99.90;;;;;;4993791;28;20042;-90
2022/06/08 06:19:55;;;;;;;16.83;12.63;;;14.70;99.90;;;;;;5004007;28;20037;-87
2022/06/08 06:22:23;;;;;;;19.73;13.88;;;14.80;99.90;;;;;;5006234;28;20053;-88
2022/06/08 06:24:50;;;;;;;18.60;13.80;;;14.40;99.90;;;;;;5008403;28;20140;-88
2022/06/08 06:27:21;;;;;;;16.98;13.07;;;14.80;99.90;;;;;;4992203;28;20053;-91
2022/06/08 06:29:49;;;;;;;17.10;13.25;;;14.50;99.90;;;;;;4968172;28;20136;-91
2022/06/08 06:32:42;;;;;;;17.35;13.30;;;15.10;99.90;;;;;;4981862;28;20081;-88
2022/06/08 06:35:16;;;;;;;18.08;11.75;;;14.40;99.90;;;;;;4979849;28;20105;-88
2022/06/08 06:37:42;;;;;;;16.08;12.80;;;15.00;99.90;;;;;;4983362;28;20045;-90
2022/06/08 06:40:08;;;;;;;17.90;12.95;;;15.20;99.90;;;;;;4982851;28;20516;-88
2022/06/08 06:42:34;;;;;;;18.25;12.73;;;15.40;99.90;;;;;;4950677;28;20045;-90
2022/06/08 06:45:00;;;;;;;19.15;13.18;;;15.40;99.90;;;;;;4982950;28;20065;-91
2022/06/08 06:47:26;;;;;;;15.65;12.52;;;14.80;99.90;;;;;;4966071;28;20046;-90
2022/06/08 06:49:52;;;;;;;18.40;13.75;;;14.90;99.90;;;;;;4966570;28;20112;-90
2022/06/08 06:52:21;;;;;;;19.23;12.95;;;15.10;99.90;;;;;;4982511;28;20052;-90
2022/06/08 06:54:47;;;;;;;15.90;12.27;;;15.60;99.90;;;;;;4982612;28;20108;-93
2022/06/08 06:57:16;;;;;;;15.68;10.13;;;15.30;99.90;;;;;;4983198;28;20129;-88
2022/06/08 06:59:42;;;;;;;14.75;10.68;;;15.60;99.90;;;;;;4981936;28;20085;-88
2022/06/08 07:02:17;;;;;;;13.68;11.02;;;15.50;99.90;;;;;;4982283;28;20108;-90
2022/06/08 07:04:44;;;;;;;12.57;8.75;;;16.00;99.90;;;;;;4982191;28;20049;-89
2022/06/08 07:07:11;;;;;;;16.35;12.40;;;15.90;99.90;;;;;;4982642;28;20054;-89
2022/06/08 07:09:37;;;;;;;16.23;11.07;;;16.50;99.90;;;;;;4982092;28;20057;-89
2022/06/08 07:12:04;;;;;;;15.38;10.88;;;16.70;99.90;;;;;;4966856;28;20081;-88
2022/06/08 07:14:30;;;;;;;15.45;10.70;;;15.90;99.90;;;;;;4981831;28;20485;-90
2022/06/08 07:16:56;;;;;;;12.43;9.90;;;16.30;99.90;;;;;;4981879;28;20108;-88
2022/06/08 07:19:27;;;;;;;13.63;11.05;;;16.60;99.90;;;;;;4997303;28;20529;-88
2022/06/08 07:21:55;;;;;;;14.63;11.00;;;16.10;99.90;;;;;;4965836;28;20061;-88
2022/06/08 07:24:30;;;;;;;11.30;8.30;;;16.60;99.90;;;;;;4965225;28;20050;-88
2022/06/08 07:26:56;;;;;;;13.95;10.48;;;16.00;99.90;;;;;;4986510;28;20085;-88
2022/06/08 07:29:22;;;;;;;11.80;9.93;;;16.40;99.90;;;;;;4980846;28;20493;-89
2022/06/08 07:31:47;;;;;;;10.05;7.68;;;16.70;99.90;;;;;;4984760;28;20500;-89
2022/06/08 07:34:15;;;;;;;12.55;9.20;;;17.00;99.90;;;;;;5000564;28;20146;-89
2022/06/08 07:36:44;;;;;;;10.63;7.82;;;16.70;99.90;;;;;;5000703;28;20050;-87
2022/06/08 07:39:11;;;;;;;11.88;9.40;;;17.00;99.90;;;;;;4985766;28;20057;-87
2022/06/08 07:41:39;;;;;;;13.30;7.63;;;17.00;99.90;;;;;;4984364;28;20049;-87
2022/06/08 07:44:07;;;;;;;9.90;8.00;;;17.30;99.90;;;;;;5000051;28;20132;-87
2022/06/08 07:46:41;;;;;;;8.77;7.20;;;17.50;99.90;;;;;;5000183;28;20050;-88
2022/06/08 07:51:54;;;;;;;10.15;6.75;;;17.80;99.90;;;;;;5018378;28;20076;-91
2022/06/08 07:54:30;;;;;;;8.27;6.75;;;17.40;99.90;;;;;;4984344;28;20468;-90
2022/06/08 07:56:57;;;;;;;8.68;6.65;;;17.60;99.90;;;;;;4984761;28;20045;-89
2022/06/08 07:59:26;;;;;;;8.73;6.68;;;17.50;99.90;;;;;;4999875;28;20099;-90
2022/06/08 08:02:01;;;;;;;8.27;6.30;;;17.70;99.90;;;;;;5000972;28;20045;-91
2022/06/08 08:04:27;;;;;;;7.55;5.80;;;17.70;99.90;;;;;;5001341;28;20049;-91
2022/06/08 08:06:55;;;;;;;8.57;5.18;;;17.50;99.90;;;;;;4986413;28;20394;-91
2022/06/08 08:09:23;;;;;;;7.40;5.68;;;17.70;99.90;;;;;;4983759;28;20050;-88
2022/06/08 08:11:51;;;;;;;7.60;5.32;;;18.00;99.90;;;;;;5000963;28;20473;-90
2022/06/08 08:14:18;;;;;;;7.28;5.15;;;17.80;99.90;;;;;;5000548;28;20374;-90
2022/06/08 08:16:45;;;;;;;5.93;4.85;;;17.60;99.90;;;;;;5000448;28;20045;-90
2022/06/08 08:19:12;;;;;;;6.68;4.97;;;18.00;99.90;;;;;;5000471;28;20420;-92
2022/06/08 08:21:38;;;;;;;8.88;5.20;;;18.00;99.90;;;;;;4999832;28;20041;-90
2022/06/08 08:24:07;;;;;;;5.72;4.50;;;18.20;99.90;;;;;;5000113;28;20056;-89
2022/06/08 08:26:42;;;;;;;9.70;6.18;;;18.40;99.90;;;;;;4999740;28;20497;-92
2022/06/08 08:29:21;;;;;;;6.28;4.40;;;18.60;99.90;;;;;;4999765;28;20053;-90
2022/06/08 08:31:58;;;;;;;4.32;3.65;;;18.80;99.90;;;;;;5000006;28;20516;-89
2022/06/08 08:34:25;;;;;;;4.15;3.55;;;18.90;99.90;;;;;;5000271;28;20052;-89
2022/06/08 08:36:54;;;;;;;5.25;3.58;;;19.30;99.90;;;;;;5000055;28;20049;-90
2022/06/08 08:39:20;;;;;;;7.10;3.80;;;19.00;99.90;;;;;;5002843;28;20124;-90
2022/06/08 08:44:46;;;;;;;4.65;3.80;;;18.80;99.90;;;;;;5016164;28;20049;-88
2022/06/08 08:47:52;;;;;;;4.97;3.97;;;18.70;99.90;;;;;;4999484;28;20084;-88
2022/06/08 08:50:31;;;;;;;5.28;3.58;;;18.60;99.90;;;;;;4999630;28;20081;-89
2022/06/08 08:53:15;;;;;;;4.53;3.70;;;18.80;99.90;;;;;;4999592;28;20041;-88
2022/06/08 08:56:11;;;;;;;3.33;2.80;;;18.90;99.90;;;;;;4999635;28;20055;-89
2022/06/08 08:58:41;;;;;;;4.00;3.60;;;18.60;99.90;;;;;;5000420;28;20046;-89
2022/06/08 09:01:36;;;;;;;3.67;3.13;;;18.90;99.90;;;;;;4999797;28;20091;-90
2022/06/08 09:04:12;;;;;;;4.65;2.90;;;19.20;99.90;;;;;;4999359;28;20053;-89
2022/06/08 09:06:39;;;;;;;3.25;2.47;;;19.10;99.90;;;;;;5015826;28;20064;-88
2022/06/08 09:09:14;;;;;;;3.38;2.20;;;19.40;99.90;;;;;;4999524;28;20053;-88
2022/06/08 09:11:43;;;;;;;2.67;1.60;;;20.10;99.90;;;;;;4999663;28;20045;-89
2022/06/08 09:14:20;;;;;;;3.40;2.08;;;20.00;99.90;;;;;;5004665;28;20164;-90
2022/06/08 09:16:51;;;;;;;2.85;1.65;;;20.30;99.90;;;;;;5018639;28;20045;-87
2022/06/08 09:19:25;;;;;;;2.00;1.55;;;20.00;99.90;;;;;;5018484;28;20492;-88
2022/06/08 09:22:19;;;;;;;2.72;1.60;;;19.90;99.90;;;;;;5018677;28;20119;-89
2022/06/08 09:25:18;;;;;;;5.40;1.88;;;20.20;99.90;;;;;;5018807;28;20041;-90
2022/06/08 09:27:56;;;;;;;2.47;1.50;;;20.40;99.90;;;;;;5007970;28;20097;-90
2022/06/08 09:30:49;;;;;;;3.47;1.92;;;20.60;99.90;;;;;;4998808;28;20202;-89
2022/06/08 09:33:22;;;;;;;2.03;1.80;;;20.20;99.90;;;;;;4998038;28;20049;-88
2022/06/08 09:36:22;;;;;;;2.53;1.63;;;20.80;99.90;;;;;;4997691;28;20046;-87
2022/06/08 09:38:48;;;;;;;2.10;1.65;;;20.70;99.90;;;;;;5013813;28;20758;-86
2022/06/08 09:41:29;;;;;;;1.88;1.67;;;20.30;99.90;;;;;;4999632;28;20042;-90
2022/06/08 09:44:26;;;;;;;3.08;1.85;;;20.80;99.90;;;;;;4998111;28;20049;-90
2022/06/08 09:53:17;;;;;;;2.35;1.70;;;21.30;99.90;;;;;;5017216;28;20517;-89
2022/06/08 09:55:43;;;;;;;4.47;2.20;;;21.20;99.90;;;;;;4997938;28;20049;-93
2022/06/08 09:58:31;;;;;;;4.20;1.77;;;21.50;99.90;;;;;;4998331;28;20042;-89
2022/06/08 10:01:29;;;;;;;3.40;1.60;;;21.40;99.90;;;;;;4998771;28;20068;-91
2022/06/08 10:04:12;;;;;;;3.67;2.22;;;21.30;99.90;;;;;;4998903;28;20041;-89
2022/06/08 10:06:59;;;;;;;2.95;2.03;;;21.60;99.90;;;;;;5001394;28;20049;-89
2022/06/08 10:09:45;;;;;;;2.47;1.80;;;21.80;99.90;;;;;;5002436;28;20042;-88
2022/06/08 10:12:22;;;;;;;4.00;2.10;;;22.20;99.90;;;;;;5002326;28;20821;-87
2022/06/08 10:15:03;;;;;;;3.60;2.25;;;22.40;99.90;;;;;;5002733;28;20128;-88
2022/06/08 10:17:47;;;;;;;3.85;2.00;;;22.00;99.90;;;;;;5002290;28;20046;-89
2022/06/08 10:20:44;;;;;;;7.28;2.70;;;21.50;99.90;;;;;;5001453;28;20568;-88
2022/06/08 10:23:48;;;;;;;3.58;2.10;;;21.50;99.90;;;;;;4983087;28;20091;-88
2022/06/08 10:26:52;;;;;;;3.22;2.30;;;21.30;99.90;;;;;;5002358;28;20425;-89
2022/06/08 10:29:26;;;;;;;3.63;2.50;;;21.60;99.90;;;;;;4995557;28;20053;-88
2022/06/08 10:32:12;;;;;;;3.47;2.30;;;21.40;99.90;;;;;;5001253;28;20078;-87
2022/06/08 10:34:38;;;;;;;4.05;2.55;;;21.10;99.90;;;;;;5001446;28;20045;-87
2022/06/08 10:37:14;;;;;;;3.40;2.60;;;21.00;99.90;;;;;;5001679;28;20053;-90
2022/06/08 10:39:42;;;;;;;3.80;2.78;;;21.10;99.90;;;;;;5001573;28;20045;-88
2022/06/08 10:42:53;;;;;;;2.55;2.22;;;21.20;99.90;;;;;;5017784;28;20107;-88
2022/06/08 10:45:01;;;;;;;3.38;2.70;;;21.70;99.90;;;;;;5006858;28;20377;-87
2022/06/08 10:47:37;;;;;;;4.30;3.05;;;21.60;99.90;;;;;;5001320;28;20064;-87
2022/06/08 10:50:05;;;;;;;4.75;2.90;;;21.40;99.90;;;;;;5001513;28;20041;-87
2022/06/08 10:52:37;;;;;;;4.38;3.08;;;21.20;99.90;;;;;;5017618;28;20103;-86
2022/06/08 10:55:22;;;;;;;3.65;2.80;;;21.70;99.90;;;;;;5017918;28;20045;-89
2022/06/08 10:57:51;;;;;;;4.47;3.10;;;21.50;99.90;;;;;;5001434;28;20139;-87
2022/06/08 11:00:19;;;;;;;4.45;3.08;;;21.30;99.90;;;;;;5002194;28;20085;-87
2022/06/08 11:03:18;;;;;;;5.82;3.42;;;21.70;99.90;;;;;;5008205;28;20050;-88
2022/06/08 11:05:47;;;;;;;4.68;2.72;;;21.80;99.90;;;;;;5020738;28;20042;-88
2022/06/08 11:08:22;;;;;;;3.38;2.22;;;22.10;99.90;;;;;;5001790;28;20046;-89
2022/06/08 11:10:51;;;;;;;5.10;3.70;;;21.40;99.90;;;;;;5001100;28;20135;-88
2022/06/08 11:13:35;;;;;;;4.80;3.38;;;21.40;99.90;;;;;;5001203;28;20128;-88
2022/06/08 11:16:25;;;;;;;5.78;3.58;;;21.20;99.90;;;;;;5001015;28;20100;-87
2022/06/08 11:19:04;;;;;;;4.00;2.70;;;21.00;99.90;;;;;;5000393;28;20105;-87
2022/06/08 11:21:39;;;;;;;4.10;2.80;;;21.30;99.90;;;;;;5001127;28;20045;-87
2022/06/08 11:24:31;;;;;;;4.30;3.20;;;20.90;99.90;;;;;;5000726;28;20052;-87
2022/06/08 11:27:09;;;;;;;3.67;2.60;;;21.00;99.90;;;;;;5004375;28;20057;-87
2022/06/08 11:29:44;;;;;;;3.70;2.60;;;21.00;99.90;;;;;;5036818;28;20045;-90
2022/06/08 11:32:20;;;;;;;3.40;2.50;;;21.00;99.90;;;;;;5020582;28;20052;-88
2022/06/08 11:35:33;;;;;;;3.10;2.60;;;21.00;99.90;;;;;;5019917;28;20037;-89
2022/06/08 11:38:34;;;;;;;4.25;2.90;;;20.80;99.90;;;;;;5010658;28;20041;-89
2022/06/08 11:41:21;;;;;;;5.88;2.30;;;21.00;99.90;;;;;;4980032;28;20624;-88
2022/06/08 11:43:49;;;;;;;2.67;1.88;;;21.00;99.90;;;;;;5016218;28;20119;-88
2022/06/08 11:46:38;;;;;;;4.05;2.08;;;20.80;99.90;;;;;;5018178;28;20119;-90
2022/06/08 11:49:05;;;;;;;2.45;2.10;;;20.70;99.90;;;;;;5002773;28;20046;-87
2022/06/08 11:51:38;;;;;;;2.67;2.20;;;20.80;99.90;;;;;;5008041;28;20136;-88
2022/06/08 11:54:29;;;;;;;2.88;2.20;;;20.80;99.90;;;;;;5004615;28;20052;-90
2022/06/08 11:57:10;;;;;;;3.05;2.08;;;21.00;99.90;;;;;;5001624;28;20480;-88
2022/06/08 11:59:40;;;;;;;3.22;2.10;;;21.00;99.90;;;;;;5000665;28;20106;-89
2022/06/08 12:02:36;;;;;;;3.25;2.20;;;20.90;99.90;;;;;;5000828;28;20136;-87
2022/06/08 12:05:04;;;;;;;2.58;2.00;;;19.80;99.90;;;;;;5009424;28;20051;-87
2022/06/08 12:07:43;;;;;;;4.55;2.70;;;20.70;99.90;;;;;;5000641;28;20089;-89
2022/06/08 12:10:16;;;;;;;2.97;2.40;;;20.70;99.90;;;;;;5016319;28;20049;-90
2022/06/08 12:12:44;;;;;;;2.85;2.22;;;20.60;99.90;;;;;;4999001;28;20122;-89
2022/06/08 12:15:25;;;;;;;3.25;2.25;;;20.60;99.90;;;;;;5004073;28;20507;-90
2022/06/08 12:17:51;;;;;;;3.40;2.83;;;20.60;99.90;;;;;;5019865;28;20052;-90
2022/06/08 12:20:39;;;;;;;6.03;3.25;;;20.50;99.90;;;;;;5020028;28;20404;-91
2022/06/08 12:23:08;;;;;;;5.13;3.40;;;20.30;99.90;;;;;;5003681;28;20055;-89
2022/06/08 12:25:34;;;;;;;6.07;3.63;;;20.20;99.90;;;;;;5036175;28;20048;-90
2022/06/08 12:28:18;;;;;;;9.48;4.88;;;20.30;99.90;;;;;;5019400;28;20056;-90
2022/06/08 12:30:47;;;;;;;8.77;4.57;;;20.00;99.90;;;;;;5018748;28;20093;-90
2022/06/08 12:33:16;;;;;;;5.47;3.17;;;19.90;99.90;;;;;;5023449;28;20506;-89
2022/06/08 12:35:57;;;;;;;5.97;3.60;;;20.00;99.90;;;;;;5023607;28;20087;-88
2022/06/08 12:38:34;;;;;;;8.93;3.85;;;19.90;99.90;;;;;;5022704;28;20056;-89
2022/06/08 12:41:12;;;;;;;6.82;5.07;;;19.80;99.90;;;;;;5018754;28;20106;-91
2022/06/08 12:43:56;;;;;;;8.15;4.20;;;19.40;99.90;;;;;;5019401;28;20059;-89
2022/06/08 12:46:34;;;;;;;8.68;3.90;;;19.70;99.90;;;;;;5019072;28;20120;-88
2022/06/08 12:49:50;;;;;;;8.45;3.78;;;18.90;99.90;;;;;;5019888;28;20131;-91
2022/06/08 12:52:32;;;;;;;7.05;4.25;;;18.80;99.90;;;;;;5018401;28;20048;-88
2022/06/08 12:55:42;;;;;;;6.43;2.83;;;18.60;99.90;;;;;;5020171;28;20156;-90
2022/06/08 12:59:17;;;;;;;4.95;2.10;;;17.90;99.90;;;;;;4942574;28;20038;-90
2022/06/08 13:01:47;;;;;;;4.10;2.78;;;17.80;99.90;;;;;;4996403;28;20043;-89
2022/06/08 13:04:18;;;;;;;5.80;2.40;;;17.70;99.90;;;;;;5019021;28;20041;-90
2022/06/08 13:06:53;;;;;;;3.88;2.22;;;17.70;99.90;;;;;;5019601;28;20449;-89
2022/06/08 13:09:48;;;;;;;3.13;1.98;;;17.60;99.90;;;;;;5020312;28;20458;-88
2022/06/08 13:12:31;;;;;;;3.75;1.92;;;17.70;99.90;;;;;;5003928;28;20049;-88
2022/06/08 13:15:27;;;;;;;1.73;1.52;;;17.60;99.90;;;;;;5002217;28;20099;-87
2022/06/08 13:17:54;;;;;;;3.35;2.00;;;17.60;99.90;;;;;;5003131;28;20085;-89
2022/06/08 13:20:26;;;;;;;3.65;1.90;;;17.50;99.90;;;;;;5004816;28;20049;-89
2022/06/08 13:22:52;;;;;;;3.03;1.65;;;17.30;99.90;;;;;;5007693;28;20466;-87
2022/06/08 13:25:23;;;;;;;3.22;1.92;;;17.30;99.90;;;;;;5021724;28;20060;-86
2022/06/08 13:27:51;;;;;;;3.25;1.52;;;17.10;99.90;;;;;;5006151;28;20053;-90
2022/06/08 13:30:26;;;;;;;3.58;1.40;;;17.00;99.90;;;;;;5002869;28;20057;-90
2022/06/08 13:32:56;;;;;;;4.13;1.50;;;17.00;99.90;;;;;;5002271;28;20048;-89
2022/06/08 13:35:42;;;;;;;6.90;1.63;;;17.10;99.90;;;;;;5003849;28;20049;-90
2022/06/08 13:38:14;;;;;;;5.88;2.40;;;16.90;99.90;;;;;;5001762;28;20069;-88
2022/06/08 13:40:45;;;;;;;4.25;2.15;;;16.80;99.90;;;;;;5002686;28;20141;-89